sensor_id;sensor_type;location;lat;lon;timestamp;pressure;altitude;pressure_sealevel;temperature
67515;BMP280;60646;55.802;37.032;2022-09-29T00:00:28;98535.34;;;14.70
67515;BMP280;60646;55.802;37.032;2022-09-29T00:02:53;98528.38;;;14.67
67515;BMP280;60646;55.802;37.032;2022-09-29T00:05:20;98536.06;;;14.70
67515;BMP280;60646;55.802;37.032;2022-09-29T00:07:46;98543.63;;;14.72
67515;BMP280;60646;55.802;37.032;2022-09-29T00:10:11;98547.38;;;14.69
67515;BMP280;60646;55.802;37.032;2022-09-29T00:12:38;98554.53;;;14.74
67515;BMP280;60646;55.802;37.032;2022-09-29T00:15:04;98546.44;;;14.74
67515;BMP280;60646;55.802;37.032;2022-09-29T00:17:30;98539.13;;;14.67
67515;BMP280;60646;55.802;37.032;2022-09-29T00:19:56;98553.84;;;14.73
67515;BMP280;60646;55.802;37.032;2022-09-29T00:22:21;98546.47;;;14.66
67515;BMP280;60646;55.802;37.032;2022-09-29T00:24:47;98555.63;;;14.71
67515;BMP280;60646;55.802;37.032;2022-09-29T00:27:14;98566.38;;;14.78
67515;BMP280;60646;55.802;37.032;2022-09-29T00:29:40;98561.72;;;14.71
67515;BMP280;60646;55.802;37.032;2022-09-29T00:32:06;98571.19;;;14.80
67515;BMP280;60646;55.802;37.032;2022-09-29T00:34:31;98575.16;;;14.79
67515;BMP280;60646;55.802;37.032;2022-09-29T00:36:57;98580.00;;;14.73
67515;BMP280;60646;55.802;37.032;2022-09-29T00:39:23;98570.66;;;14.66
67515;BMP280;60646;55.802;37.032;2022-09-29T00:41:49;98571.38;;;14.67
67515;BMP280;60646;55.802;37.032;2022-09-29T00:51:55;98583.59;;;14.68
67515;BMP280;60646;55.802;37.032;2022-09-29T00:54:25;98575.53;;;14.68
67515;BMP280;60646;55.802;37.032;2022-09-29T00:56:56;98580.19;;;14.67
67515;BMP280;60646;55.802;37.032;2022-09-29T00:59:32;98590.00;;;14.80
67515;BMP280;60646;55.802;37.032;2022-09-29T01:02:02;98578.91;;;14.68
67515;BMP280;60646;55.802;37.032;2022-09-29T01:04:29;98571.75;;;14.71
67515;BMP280;60646;55.802;37.032;2022-09-29T01:06:56;98578.56;;;14.80
67515;BMP280;60646;55.802;37.032;2022-09-29T01:09:26;98566.38;;;14.71
67515;BMP280;60646;55.802;37.032;2022-09-29T01:11:55;98574.63;;;14.73
67515;BMP280;60646;55.802;37.032;2022-09-29T01:14:22;98571.03;;;14.70
67515;BMP280;60646;55.802;37.032;2022-09-29T01:16:49;98570.84;;;14.68
67515;BMP280;60646;55.802;37.032;2022-09-29T01:25:02;98600.22;;;14.74
67515;BMP280;60646;55.802;37.032;2022-09-29T01:41:56;98597.88;;;14.63
67515;BMP280;60646;55.802;37.032;2022-09-29T01:47:56;98617.25;;;14.69
67515;BMP280;60646;55.802;37.032;2022-09-29T01:50:31;98597.91;;;14.55
67515;BMP280;60646;55.802;37.032;2022-09-29T01:53:06;98622.97;;;14.65
67515;BMP280;60646;55.802;37.032;2022-09-29T01:55:34;98606.47;;;14.54
67515;BMP280;60646;55.802;37.032;2022-09-29T01:58:12;98611.34;;;14.55
67515;BMP280;60646;55.802;37.032;2022-09-29T02:00:47;98606.13;;;14.50
67515;BMP280;60646;55.802;37.032;2022-09-29T02:03:30;98609.34;;;14.56
67515;BMP280;60646;55.802;37.032;2022-09-29T02:06:08;98619.75;;;14.59
67515;BMP280;60646;55.802;37.032;2022-09-29T02:11:15;98610.25;;;14.58
67515;BMP280;60646;55.802;37.032;2022-09-29T02:13:47;98614.72;;;14.63
67515;BMP280;60646;55.802;37.032;2022-09-29T02:16:21;98601.47;;;14.58
67515;BMP280;60646;55.802;37.032;2022-09-29T02:19:18;98601.47;;;14.58
67515;BMP280;60646;55.802;37.032;2022-09-29T02:21:45;98607.72;;;14.60
67515;BMP280;60646;55.802;37.032;2022-09-29T02:24:11;98620.66;;;14.62
67515;BMP280;60646;55.802;37.032;2022-09-29T02:26:38;98615.81;;;14.60
67515;BMP280;60646;55.802;37.032;2022-09-29T02:29:05;98620.09;;;14.56
67515;BMP280;60646;55.802;37.032;2022-09-29T02:31:33;98622.97;;;14.58
67515;BMP280;60646;55.802;37.032;2022-09-29T02:34:00;98609.16;;;14.54
67515;BMP280;60646;55.802;37.032;2022-09-29T02:42:17;98624.06;;;14.70
67515;BMP280;60646;55.802;37.032;2022-09-29T02:57:46;98616.19;;;14.72
67515;BMP280;60646;55.802;37.032;2022-09-29T03:00:15;98604.72;;;14.64
67515;BMP280;60646;55.802;37.032;2022-09-29T03:02:42;98618.16;;;14.64
67515;BMP280;60646;55.802;37.032;2022-09-29T03:05:10;98631.81;;;14.73
67515;BMP280;60646;55.802;37.032;2022-09-29T03:07:37;98628.34;;;14.65
67515;BMP280;60646;55.802;37.032;2022-09-29T03:10:04;98628.72;;;14.62
67515;BMP280;60646;55.802;37.032;2022-09-29T03:12:31;98621.56;;;14.64
67515;BMP280;60646;55.802;37.032;2022-09-29T03:14:56;98623.69;;;14.66
67515;BMP280;60646;55.802;37.032;2022-09-29T03:17:22;98639.16;;;14.73
67515;BMP280;60646;55.802;37.032;2022-09-29T03:19:48;98642.34;;;14.71
67515;BMP280;60646;55.802;37.032;2022-09-29T03:22:14;98642.50;;;14.66
67515;BMP280;60646;55.802;37.032;2022-09-29T03:24:39;98630.13;;;14.63
67515;BMP280;60646;55.802;37.032;2022-09-29T03:27:07;98644.47;;;14.65
67515;BMP280;60646;55.802;37.032;2022-09-29T03:29:34;98654.88;;;14.69
67515;BMP280;60646;55.802;37.032;2022-09-29T03:32:01;98647.72;;;14.64
67515;BMP280;60646;55.802;37.032;2022-09-29T03:34:27;98638.03;;;14.61
67515;BMP280;60646;55.802;37.032;2022-09-29T03:36:53;98661.69;;;14.70
67515;BMP280;60646;55.802;37.032;2022-09-29T03:39:19;98646.44;;;14.65
67515;BMP280;60646;55.802;37.032;2022-09-29T03:41:45;98661.69;;;14.70
67515;BMP280;60646;55.802;37.032;2022-09-29T03:44:12;98654.50;;;14.65
67515;BMP280;60646;55.802;37.032;2022-09-29T03:46:37;98663.13;;;14.71
67515;BMP280;60646;55.802;37.032;2022-09-29T03:49:03;98665.09;;;14.70
67515;BMP280;60646;55.802;37.032;2022-09-29T03:51:29;98654.72;;;14.67
67515;BMP280;60646;55.802;37.032;2022-09-29T03:53:55;98652.38;;;14.63
67515;BMP280;60646;55.802;37.032;2022-09-29T03:56:20;98654.00;;;14.66
67515;BMP280;60646;55.802;37.032;2022-09-29T03:58:47;98658.47;;;14.64
67515;BMP280;60646;55.802;37.032;2022-09-29T04:01:12;98658.47;;;14.64
67515;BMP280;60646;55.802;37.032;2022-09-29T04:03:38;98646.25;;;14.63
67515;BMP280;60646;55.802;37.032;2022-09-29T04:06:04;98668.00;;;14.72
67515;BMP280;60646;55.802;37.032;2022-09-29T04:08:30;98661.69;;;14.62
67515;BMP280;60646;55.802;37.032;2022-09-29T04:10:56;98663.13;;;14.71
67515;BMP280;60646;55.802;37.032;2022-09-29T04:13:23;98651.63;;;14.63
67515;BMP280;60646;55.802;37.032;2022-09-29T04:15:48;98650.72;;;14.60
67515;BMP280;60646;55.802;37.032;2022-09-29T04:18:14;98654.31;;;14.63
67515;BMP280;60646;55.802;37.032;2022-09-29T04:20:40;98658.09;;;14.60
67515;BMP280;60646;55.802;37.032;2022-09-29T04:23:06;98655.22;;;14.58
67515;BMP280;60646;55.802;37.032;2022-09-29T04:25:32;98673.53;;;14.67
67515;BMP280;60646;55.802;37.032;2022-09-29T04:27:58;98652.00;;;14.59
67515;BMP280;60646;55.802;37.032;2022-09-29T04:30:24;98648.03;;;14.53
67515;BMP280;60646;55.802;37.032;2022-09-29T04:32:50;98659.88;;;14.65
67515;BMP280;60646;55.802;37.032;2022-09-29T04:35:16;98663.47;;;14.60
67515;BMP280;60646;55.802;37.032;2022-09-29T04:37:42;98663.84;;;14.64
67515;BMP280;60646;55.802;37.032;2022-09-29T04:40:07;98672.97;;;14.68
67515;BMP280;60646;55.802;37.032;2022-09-29T04:42:33;98668.84;;;14.60
67515;BMP280;60646;55.802;37.032;2022-09-29T04:44:59;98678.91;;;14.67
67515;BMP280;60646;55.802;37.032;2022-09-29T04:47:25;98692.91;;;14.73
67515;BMP280;60646;55.802;37.032;2022-09-29T04:49:52;98675.47;;;14.59
67515;BMP280;60646;55.802;37.032;2022-09-29T04:52:17;98687.16;;;14.69
67515;BMP280;60646;55.802;37.032;2022-09-29T04:54:43;98684.06;;;14.65
67515;BMP280;60646;55.802;37.032;2022-09-29T04:57:09;98673.13;;;14.63
67515;BMP280;60646;55.802;37.032;2022-09-29T04:59:35;98702.94;;;14.80
67515;BMP280;60646;55.802;37.032;2022-09-29T05:02:00;98684.63;;;14.71
67515;BMP280;60646;55.802;37.032;2022-09-29T05:04:26;98685.19;;;14.77
67515;BMP280;60646;55.802;37.032;2022-09-29T05:06:52;98680.34;;;14.75
67515;BMP280;60646;55.802;37.032;2022-09-29T05:09:18;98699.38;;;14.85
67515;BMP280;60646;55.802;37.032;2022-09-29T05:11:44;98696.13;;;14.79
67515;BMP280;60646;55.802;37.032;2022-09-29T05:14:11;98694.00;;;14.77
67515;BMP280;60646;55.802;37.032;2022-09-29T05:16:37;98692.91;;;14.81
67515;BMP280;60646;55.802;37.032;2022-09-29T05:19:03;98699.72;;;14.82
67515;BMP280;60646;55.802;37.032;2022-09-29T05:21:29;98711.19;;;14.82
67515;BMP280;60646;55.802;37.032;2022-09-29T05:23:55;98701.69;;;14.81
67515;BMP280;60646;55.802;37.032;2022-09-29T05:26:21;98700.44;;;14.82
67515;BMP280;60646;55.802;37.032;2022-09-29T05:28:47;98702.94;;;14.80
67515;BMP280;60646;55.802;37.032;2022-09-29T05:31:14;98709.03;;;14.88
67515;BMP280;60646;55.802;37.032;2022-09-29T05:33:40;98693.06;;;14.75
67515;BMP280;60646;55.802;37.032;2022-09-29T05:36:08;98711.56;;;14.86
67515;BMP280;60646;55.802;37.032;2022-09-29T05:38:35;98704.38;;;14.81
67515;BMP280;60646;55.802;37.032;2022-09-29T05:41:05;98713.19;;;14.89
67515;BMP280;60646;55.802;37.032;2022-09-29T05:43:32;98724.13;;;14.91
67515;BMP280;60646;55.802;37.032;2022-09-29T05:46:02;98713.38;;;14.91
67515;BMP280;60646;55.802;37.032;2022-09-29T05:48:29;98713.00;;;14.87
67515;BMP280;60646;55.802;37.032;2022-09-29T05:50:59;98706.19;;;14.86
67515;BMP280;60646;55.802;37.032;2022-09-29T05:53:30;98717.13;;;14.88
67515;BMP280;60646;55.802;37.032;2022-09-29T05:55:56;98700.44;;;14.82
67515;BMP280;60646;55.802;37.032;2022-09-29T05:58:22;98709.03;;;14.88
67515;BMP280;60646;55.802;37.032;2022-09-29T06:00:47;98714.09;;;14.92
67515;BMP280;60646;55.802;37.032;2022-09-29T06:03:13;98716.94;;;14.94
67515;BMP280;60646;55.802;37.032;2022-09-29T06:05:39;98708.72;;;14.92
67515;BMP280;60646;55.802;37.032;2022-09-29T06:08:06;98700.81;;;14.94
67515;BMP280;60646;55.802;37.032;2022-09-29T06:10:32;98709.44;;;15.00
67515;BMP280;60646;55.802;37.032;2022-09-29T06:12:59;98720.38;;;15.02
67515;BMP280;60646;55.802;37.032;2022-09-29T06:15:25;98715.19;;;14.96
67515;BMP280;60646;55.802;37.032;2022-09-29T06:17:58;98713.38;;;15.06
67515;BMP280;60646;55.802;37.032;2022-09-29T06:20:25;98730.78;;;15.05
67515;BMP280;60646;55.802;37.032;2022-09-29T06:22:55;98700.81;;;14.94
67515;BMP280;60646;55.802;37.032;2022-09-29T06:25:21;98714.28;;;15.01
67515;BMP280;60646;55.802;37.032;2022-09-29T06:28:06;98711.59;;;15.01
67515;BMP280;60646;55.802;37.032;2022-09-29T06:30:32;98709.81;;;15.04
67515;BMP280;60646;55.802;37.032;2022-09-29T06:32:57;98721.28;;;15.04
67515;BMP280;60646;55.802;37.032;2022-09-29T06:35:23;98716.09;;;15.06
67515;BMP280;60646;55.802;37.032;2022-09-29T06:38:07;98723.81;;;15.10
67515;BMP280;60646;55.802;37.032;2022-09-29T06:40:33;98727.75;;;15.09
67515;BMP280;60646;55.802;37.032;2022-09-29T06:42:59;98718.97;;;15.08
67515;BMP280;60646;55.802;37.032;2022-09-29T06:45:25;98734.22;;;15.13
67515;BMP280;60646;55.802;37.032;2022-09-29T06:48:10;98720.22;;;15.07
67515;BMP280;60646;55.802;37.032;2022-09-29T06:50:35;98726.69;;;15.12
67515;BMP280;60646;55.802;37.032;2022-09-29T06:53:01;98724.72;;;15.12
67515;BMP280;60646;55.802;37.032;2022-09-29T06:55:27;98728.84;;;15.21
67515;BMP280;60646;55.802;37.032;2022-09-29T07:02:30;98736.56;;;15.24
67515;BMP280;60646;55.802;37.032;2022-09-29T07:04:59;98754.69;;;15.31
67515;BMP280;60646;55.802;37.032;2022-09-29T07:08:22;98761.84;;;15.36
67515;BMP280;60646;55.802;37.032;2022-09-29T07:10:48;98752.16;;;15.33
67515;BMP280;60646;55.802;37.032;2022-09-29T07:13:14;98741.41;;;15.26
67515;BMP280;60646;55.802;37.032;2022-09-29T07:15:40;98754.69;;;15.31
67515;BMP280;60646;55.802;37.032;2022-09-29T07:18:06;98760.59;;;15.37
67515;BMP280;60646;55.802;37.032;2022-09-29T07:20:32;98758.63;;;15.38
67515;BMP280;60646;55.802;37.032;2022-09-29T07:22:58;98765.47;;;15.47
67515;BMP280;60646;55.802;37.032;2022-09-29T07:25:24;98757.00;;;15.42
67515;BMP280;60646;55.802;37.032;2022-09-29T07:27:51;98757.94;;;15.45
67515;BMP280;60646;55.802;37.032;2022-09-29T07:30:17;98773.00;;;15.56
67515;BMP280;60646;55.802;37.032;2022-09-29T07:32:43;98777.31;;;15.59
67515;BMP280;60646;55.802;37.032;2022-09-29T07:38:50;98787.69;;;15.70
67515;BMP280;60646;55.802;37.032;2022-09-29T07:41:20;98787.72;;;15.77
67515;BMP280;60646;55.802;37.032;2022-09-29T07:43:46;98769.03;;;15.64
67515;BMP280;60646;55.802;37.032;2022-09-29T07:46:40;98794.72;;;15.88
67515;BMP280;60646;55.802;37.032;2022-09-29T07:49:06;98796.16;;;15.81
67515;BMP280;60646;55.802;37.032;2022-09-29T07:51:32;98791.31;;;15.80
67515;BMP280;60646;55.802;37.032;2022-09-29T07:54:03;98793.25;;;15.87
67515;BMP280;60646;55.802;37.032;2022-09-29T07:56:29;98790.94;;;15.76
67515;BMP280;60646;55.802;37.032;2022-09-29T07:58:55;98791.31;;;15.80
67515;BMP280;60646;55.802;37.032;2022-09-29T08:01:20;98794.72;;;15.88
67515;BMP280;60646;55.802;37.032;2022-09-29T08:03:52;98812.13;;;16.02
67515;BMP280;60646;55.802;37.032;2022-09-29T08:06:19;98800.28;;;15.97
67515;BMP280;60646;55.802;37.032;2022-09-29T08:08:46;98801.19;;;16.00
67515;BMP280;60646;55.802;37.032;2022-09-29T08:11:14;98817.16;;;16.13
67515;BMP280;60646;55.802;37.032;2022-09-29T08:13:40;98812.81;;;16.10
67515;BMP280;60646;55.802;37.032;2022-09-29T08:16:10;98815.88;;;16.14
67515;BMP280;60646;55.802;37.032;2022-09-29T08:18:36;98812.13;;;16.17
67515;BMP280;60646;55.802;37.032;2022-09-29T08:21:03;98811.03;;;16.20
67515;BMP280;60646;55.802;37.032;2022-09-29T08:23:33;98844.78;;;16.36
67515;BMP280;60646;55.802;37.032;2022-09-29T08:26:14;98829.84;;;16.43
67515;BMP280;60646;55.802;37.032;2022-09-29T08:28:41;98830.03;;;16.45
67515;BMP280;60646;55.802;37.032;2022-09-29T08:31:10;98823.19;;;16.44
67515;BMP280;60646;55.802;37.032;2022-09-29T08:33:36;98835.72;;;16.56
67515;BMP280;60646;55.802;37.032;2022-09-29T08:36:03;98836.84;;;16.53
67515;BMP280;60646;55.802;37.032;2022-09-29T08:38:43;98835.53;;;16.62
67515;BMP280;60646;55.802;37.032;2022-09-29T08:41:32;98847.53;;;16.76
67515;BMP280;60646;55.802;37.032;2022-09-29T08:44:04;98831.38;;;16.68
67515;BMP280;60646;55.802;37.032;2022-09-29T08:50:39;98857.56;;;16.91
67515;BMP280;60646;55.802;37.032;2022-09-29T08:53:10;98854.13;;;16.90
67515;BMP280;60646;55.802;37.032;2022-09-29T08:55:49;98865.44;;;16.96
67515;BMP280;60646;55.802;37.032;2022-09-29T08:58:17;98860.44;;;16.93
67515;BMP280;60646;55.802;37.032;2022-09-29T09:00:52;98874.78;;;17.03
67515;BMP280;60646;55.802;37.032;2022-09-29T09:06:35;98877.78;;;17.14
67515;BMP280;60646;55.802;37.032;2022-09-29T09:09:10;98870.78;;;17.11
67515;BMP280;60646;55.802;37.032;2022-09-29T09:12:04;98873.59;;;17.21
67515;BMP280;60646;55.802;37.032;2022-09-29T09:21:06;98889.22;;;17.30
67515;BMP280;60646;55.802;37.032;2022-09-29T09:23:56;98887.03;;;17.36
67515;BMP280;60646;55.802;37.032;2022-09-29T09:26:35;98870.16;;;17.28
67515;BMP280;60646;55.802;37.032;2022-09-29T09:29:24;98880.88;;;17.43
67515;BMP280;60646;55.802;37.032;2022-09-29T09:34:39;98883.91;;;17.47
67515;BMP280;60646;55.802;37.032;2022-09-29T09:42:38;98861.97;;;17.43
67515;BMP280;60646;55.802;37.032;2022-09-29T09:45:13;98882.38;;;17.61
67515;BMP280;60646;55.802;37.032;2022-09-29T09:47:46;98869.47;;;17.52
67515;BMP280;60646;55.802;37.032;2022-09-29T09:50:16;98881.25;;;17.64
67515;BMP280;60646;55.802;37.032;2022-09-29T09:52:55;98871.88;;;17.65
67515;BMP280;60646;55.802;37.032;2022-09-29T09:55:26;98868.09;;;17.68
67515;BMP280;60646;55.802;37.032;2022-09-29T10:01:05;98889.56;;;17.83
67515;BMP280;60646;55.802;37.032;2022-09-29T10:03:36;98886.88;;;17.83
67515;BMP280;60646;55.802;37.032;2022-09-29T10:06:05;98894.78;;;17.89
67515;BMP280;60646;55.802;37.032;2022-09-29T10:08:33;98889.94;;;17.87
67515;BMP280;60646;55.802;37.032;2022-09-29T10:11:25;98893.78;;;18.01
67515;BMP280;60646;55.802;37.032;2022-09-29T10:14:41;98902.41;;;18.00
67515;BMP280;60646;55.802;37.032;2022-09-29T10:17:01;98909.06;;;18.06
67515;BMP280;60646;55.802;37.032;2022-09-29T10:19:59;98917.66;;;18.12
67515;BMP280;60646;55.802;37.032;2022-09-29T10:22:28;98924.16;;;18.09
67515;BMP280;60646;55.802;37.032;2022-09-29T10:25:15;98922.00;;;18.08
67515;BMP280;60646;55.802;37.032;2022-09-29T10:27:44;98920.56;;;18.07
67515;BMP280;60646;55.802;37.032;2022-09-29T10:30:22;98933.50;;;18.16
67515;BMP280;60646;55.802;37.032;2022-09-29T10:32:57;98940.69;;;18.13
67515;BMP280;60646;55.802;37.032;2022-09-29T10:35:32;98933.53;;;18.08
67515;BMP280;60646;55.802;37.032;2022-09-29T10:38:02;98958.88;;;18.21
67515;BMP280;60646;55.802;37.032;2022-09-29T10:40:30;98957.75;;;18.24
67515;BMP280;60646;55.802;37.032;2022-09-29T10:42:56;98934.97;;;18.09
67515;BMP280;60646;55.802;37.032;2022-09-29T10:45:25;98949.94;;;18.28
67515;BMP280;60646;55.802;37.032;2022-09-29T10:50:24;98967.31;;;18.42
67515;BMP280;60646;55.802;37.032;2022-09-29T10:52:59;98962.72;;;18.35
67515;BMP280;60646;55.802;37.032;2022-09-29T10:55:32;98961.41;;;18.36
67515;BMP280;60646;55.802;37.032;2022-09-29T10:58:19;98966.38;;;18.47
67515;BMP280;60646;55.802;37.032;2022-09-29T11:00:47;98964.44;;;18.40
67515;BMP280;60646;55.802;37.032;2022-09-29T11:03:20;98977.50;;;18.51
67515;BMP280;60646;55.802;37.032;2022-09-29T11:11:26;98964.16;;;18.53
67515;BMP280;60646;55.802;37.032;2022-09-29T11:13:53;98975.63;;;18.61
67515;BMP280;60646;55.802;37.032;2022-09-29T11:16:30;98994.88;;;18.82
67515;BMP280;60646;55.802;37.032;2022-09-29T11:19:12;98998.06;;;18.88
67515;BMP280;60646;55.802;37.032;2022-09-29T11:35:20;99000.16;;;18.97
67515;BMP280;60646;55.802;37.032;2022-09-29T11:40:52;99023.88;;;19.06
67515;BMP280;60646;55.802;37.032;2022-09-29T11:46:40;99033.25;;;19.05
67515;BMP280;60646;55.802;37.032;2022-09-29T11:49:52;99041.69;;;19.09
67515;BMP280;60646;55.802;37.032;2022-09-29T11:52:24;99035.84;;;19.03
67515;BMP280;60646;55.802;37.032;2022-09-29T12:01:47;99044.72;;;19.13
67515;BMP280;60646;55.802;37.032;2022-09-29T12:04:32;99047.59;;;19.15
67515;BMP280;60646;55.802;37.032;2022-09-29T12:07:10;99044.72;;;19.13
67515;BMP280;60646;55.802;37.032;2022-09-29T12:09:41;99050.13;;;19.13
67515;BMP280;60646;55.802;37.032;2022-09-29T12:17:27;99045.38;;;19.21
67515;BMP280;60646;55.802;37.032;2022-09-29T12:20:17;99032.81;;;19.16
67515;BMP280;60646;55.802;37.032;2022-09-29T12:22:45;99037.91;;;19.12
67515;BMP280;60646;55.802;37.032;2022-09-29T12:25:15;99054.78;;;19.20
67515;BMP280;60646;55.802;37.032;2022-09-29T12:27:42;99045.84;;;19.10
67515;BMP280;60646;55.802;37.032;2022-09-29T12:33:50;99057.00;;;19.14
67515;BMP280;60646;55.802;37.032;2022-09-29T12:39:12;99079.38;;;19.15
67515;BMP280;60646;55.802;37.032;2022-09-29T12:41:43;99067.50;;;19.10
67515;BMP280;60646;55.802;37.032;2022-09-29T12:44:24;99054.16;;;19.12
67515;BMP280;60646;55.802;37.032;2022-09-29T12:46:57;99062.59;;;19.16
67515;BMP280;60646;55.802;37.032;2022-09-29T12:49:42;99063.44;;;19.19
67515;BMP280;60646;55.802;37.032;2022-09-29T12:52:23;99053.97;;;19.10
67515;BMP280;60646;55.802;37.032;2022-09-29T12:54:57;99052.72;;;19.11
67515;BMP280;60646;55.802;37.032;2022-09-29T12:57:31;99067.41;;;19.18
67515;BMP280;60646;55.802;37.032;2022-09-29T13:00:18;99061.69;;;19.14
67515;BMP280;60646;55.802;37.032;2022-09-29T13:29:22;99071.97;;;18.98
67515;BMP280;60646;55.802;37.032;2022-09-29T13:31:50;99090.28;;;19.07
67515;BMP280;60646;55.802;37.032;2022-09-29T13:34:37;99090.75;;;19.13
67515;BMP280;60646;55.802;37.032;2022-09-29T13:37:16;99082.00;;;19.05
67515;BMP280;60646;55.802;37.032;2022-09-29T13:39:54;99086.69;;;19.05
67515;BMP280;60646;55.802;37.032;2022-09-29T13:47:50;99102.88;;;19.12
67515;BMP280;60646;55.802;37.032;2022-09-29T13:50:45;99100.50;;;19.16
67515;BMP280;60646;55.802;37.032;2022-09-29T13:55:52;99096.03;;;19.11
67515;BMP280;60646;55.802;37.032;2022-09-29T13:58:23;99098.56;;;19.09
67515;BMP280;60646;55.802;37.032;2022-09-29T14:00:50;99085.66;;;19.00
67515;BMP280;60646;55.802;37.032;2022-09-29T14:03:34;99101.13;;;19.07
67515;BMP280;60646;55.802;37.032;2022-09-29T14:08:44;99098.41;;;19.07
67515;BMP280;60646;55.802;37.032;2022-09-29T14:11:21;99098.47;;;19.00
67515;BMP280;60646;55.802;37.032;2022-09-29T14:14:03;99093.31;;;18.94
67515;BMP280;60646;55.802;37.032;2022-09-29T14:16:53;99118.44;;;19.04
67515;BMP280;60646;55.802;37.032;2022-09-29T14:21:58;99121.78;;;18.95
67515;BMP280;60646;55.802;37.032;2022-09-29T14:29:47;99110.41;;;18.79
67515;BMP280;60646;55.802;37.032;2022-09-29T14:32:18;99110.41;;;18.72
67515;BMP280;60646;55.802;37.032;2022-09-29T14:34:45;99111.22;;;18.65
67515;BMP280;60646;55.802;37.032;2022-09-29T14:37:19;99133.09;;;18.76
67515;BMP280;60646;55.802;37.032;2022-09-29T14:39:46;99116.31;;;18.61
67515;BMP280;60646;55.802;37.032;2022-09-29T14:42:32;99129.97;;;18.63
67515;BMP280;60646;55.802;37.032;2022-09-29T14:45:01;99121.19;;;18.55
67515;BMP280;60646;55.802;37.032;2022-09-29T14:48:06;99150.91;;;18.62
67515;BMP280;60646;55.802;37.032;2022-09-29T14:50:56;99139.47;;;18.47
67515;BMP280;60646;55.802;37.032;2022-09-29T14:53:45;99154.00;;;18.59
67515;BMP280;60646;55.802;37.032;2022-09-29T14:58:55;99166.78;;;18.34
67515;BMP280;60646;55.802;37.032;2022-09-29T15:01:27;99147.19;;;18.18
67515;BMP280;60646;55.802;37.032;2022-09-29T15:03:55;99158.94;;;18.21
67515;BMP280;60646;55.802;37.032;2022-09-29T15:06:25;99162.00;;;18.17
67515;BMP280;60646;55.802;37.032;2022-09-29T15:08:55;99154.47;;;18.08
67515;BMP280;60646;55.802;37.032;2022-09-29T15:11:24;99151.63;;;17.98
67515;BMP280;60646;55.802;37.032;2022-09-29T15:13:56;99172.16;;;18.01
67515;BMP280;60646;55.802;37.032;2022-09-29T15:16:46;99179.00;;;18.02
67515;BMP280;60646;55.802;37.032;2022-09-29T15:26:30;99190.06;;;17.74
67515;BMP280;60646;55.802;37.032;2022-09-29T15:28:57;99175.19;;;17.58
67515;BMP280;60646;55.802;37.032;2022-09-29T15:31:30;99186.31;;;17.62
67515;BMP280;60646;55.802;37.032;2022-09-29T15:33:56;99187.38;;;17.59
67515;BMP280;60646;55.802;37.032;2022-09-29T15:36:45;99197.84;;;17.55
67515;BMP280;60646;55.802;37.032;2022-09-29T15:42:00;99213.53;;;17.41
67515;BMP280;60646;55.802;37.032;2022-09-29T15:44:27;99204.38;;;17.29
67515;BMP280;60646;55.802;37.032;2022-09-29T15:47:01;99202.75;;;17.19
67515;BMP280;60646;55.802;37.032;2022-09-29T15:49:31;99206.88;;;17.12
67515;BMP280;60646;55.802;37.032;2022-09-29T15:52:09;99215.13;;;17.07
67515;BMP280;60646;55.802;37.032;2022-09-29T15:54:54;99222.16;;;17.02
67515;BMP280;60646;55.802;37.032;2022-09-29T16:02:57;99202.13;;;16.67
67515;BMP280;60646;55.802;37.032;2022-09-29T16:05:27;99212.56;;;16.63
67515;BMP280;60646;55.802;37.032;2022-09-29T16:08:05;99218.84;;;16.58
67515;BMP280;60646;55.802;37.032;2022-09-29T16:10:40;99219.72;;;16.53
67515;BMP280;60646;55.802;37.032;2022-09-29T16:13:24;99220.75;;;16.50
67515;BMP280;60646;55.802;37.032;2022-09-29T16:16:51;99239.06;;;16.44
67515;BMP280;60646;55.802;37.032;2022-09-29T16:19:38;99245.91;;;16.45
67515;BMP280;60646;55.802;37.032;2022-09-29T16:22:17;99233.59;;;16.29
67515;BMP280;60646;55.802;37.032;2022-09-29T16:27:57;99244.38;;;16.22
67515;BMP280;60646;55.802;37.032;2022-09-29T16:32:55;99216.94;;;15.95
67515;BMP280;60646;55.802;37.032;2022-09-29T16:35:56;99242.50;;;16.09
67515;BMP280;60646;55.802;37.032;2022-09-29T16:38:49;99250.00;;;16.03
67515;BMP280;60646;55.802;37.032;2022-09-29T16:41:33;99252.09;;;15.97
67515;BMP280;60646;55.802;37.032;2022-09-29T16:49:34;99254.47;;;15.72
67515;BMP280;60646;55.802;37.032;2022-09-29T16:52:16;99269.97;;;15.79
67515;BMP280;60646;55.802;37.032;2022-09-29T16:54:45;99260.63;;;15.60
67515;BMP280;60646;55.802;37.032;2022-09-29T16:57:24;99271.69;;;15.69
67515;BMP280;60646;55.802;37.032;2022-09-29T16:59:56;99275.53;;;15.61
67515;BMP280;60646;55.802;37.032;2022-09-29T17:02:24;99287.38;;;15.58
67515;BMP280;60646;55.802;37.032;2022-09-29T17:04:51;99274.91;;;15.47
67515;BMP280;60646;55.802;37.032;2022-09-29T17:07:19;99284.28;;;15.54
67515;BMP280;60646;55.802;37.032;2022-09-29T17:09:46;99288.06;;;15.51
67515;BMP280;60646;55.802;37.032;2022-09-29T17:12:15;99279.56;;;15.47
67515;BMP280;60646;55.802;37.032;2022-09-29T17:14:41;99273.38;;;15.38
67515;BMP280;60646;55.802;37.032;2022-09-29T17:17:26;99276.06;;;15.38
67515;BMP280;60646;55.802;37.032;2022-09-29T17:19:54;99284.38;;;15.40
67515;BMP280;60646;55.802;37.032;2022-09-29T17:24:52;99299.78;;;15.40
67515;BMP280;60646;55.802;37.032;2022-09-29T17:27:18;99296.59;;;15.42
67515;BMP280;60646;55.802;37.032;2022-09-29T17:30:04;99301.38;;;15.35
67515;BMP280;60646;55.802;37.032;2022-09-29T17:32:30;99282.75;;;15.24
67515;BMP280;60646;55.802;37.032;2022-09-29T17:34:56;99289.47;;;15.31
67515;BMP280;60646;55.802;37.032;2022-09-29T17:37:22;99290.72;;;15.30
67515;BMP280;60646;55.802;37.032;2022-09-29T17:39:48;99280.47;;;15.28
67515;BMP280;60646;55.802;37.032;2022-09-29T17:42:14;99276.72;;;15.31
67515;BMP280;60646;55.802;37.032;2022-09-29T17:44:39;99274.22;;;15.33
67515;BMP280;60646;55.802;37.032;2022-09-29T17:47:14;99278.75;;;15.38
67515;BMP280;60646;55.802;37.032;2022-09-29T17:50:32;99287.09;;;15.48